sensor_id;sensor_type;location;lat;lon;timestamp;pressure;altitude;pressure_sealevel;temperature;humidity
37972;BME280;23794;48.234;8.344;2023-05-25T00:00:13;94576.56;;;6.55;62.18
37972;BME280;23794;48.234;8.344;2023-05-25T00:02:41;94571.03;;;6.48;62.73
37972;BME280;23794;48.234;8.344;2023-05-25T00:05:09;94574.88;;;6.47;61.91
37972;BME280;23794;48.234;8.344;2023-05-25T00:07:37;94575.56;;;6.40;63.34
37972;BME280;23794;48.234;8.344;2023-05-25T00:10:05;94575.78;;;6.55;62.76
37972;BME280;23794;48.234;8.344;2023-05-25T00:12:32;94578.56;;;6.58;62.51
37972;BME280;23794;48.234;8.344;2023-05-25T00:14:59;94575.91;;;6.62;62.15
37972;BME280;23794;48.234;8.344;2023-05-25T00:17:26;94574.00;;;6.66;62.38
37972;BME280;23794;48.234;8.344;2023-05-25T00:19:55;94577.97;;;6.72;62.33
37972;BME280;23794;48.234;8.344;2023-05-25T00:22:23;94570.66;;;6.76;63.48
37972;BME280;23794;48.234;8.344;2023-05-25T00:24:54;94570.38;;;6.85;62.00
37972;BME280;23794;48.234;8.344;2023-05-25T00:27:21;94566.97;;;6.92;61.79
37972;BME280;23794;48.234;8.344;2023-05-25T00:29:48;94567.47;;;7.01;61.77
37972;BME280;23794;48.234;8.344;2023-05-25T00:32:15;94563.34;;;7.11;62.00
37972;BME280;23794;48.234;8.344;2023-05-25T00:34:42;94564.53;;;7.14;61.73
37972;BME280;23794;48.234;8.344;2023-05-25T00:37:09;94569.56;;;7.12;61.06
37972;BME280;23794;48.234;8.344;2023-05-25T00:39:36;94563.44;;;7.18;60.07
37972;BME280;23794;48.234;8.344;2023-05-25T00:42:04;94568.41;;;7.13;61.09
37972;BME280;23794;48.234;8.344;2023-05-25T00:44:31;94560.31;;;7.20;61.06
37972;BME280;23794;48.234;8.344;2023-05-25T00:46:58;94567.31;;;7.17;61.53
37972;BME280;23794;48.234;8.344;2023-05-25T00:49:27;94556.44;;;7.21;61.44
37972;BME280;23794;48.234;8.344;2023-05-25T00:51:56;94552.16;;;7.20;62.04
37972;BME280;23794;48.234;8.344;2023-05-25T00:54:23;94559.31;;;7.32;61.74
37972;BME280;23794;48.234;8.344;2023-05-25T00:56:55;94547.97;;;7.30;62.13
37972;BME280;23794;48.234;8.344;2023-05-25T01:00:01;94546.91;;;7.38;61.03
37972;BME280;23794;48.234;8.344;2023-05-25T01:02:21;94545.97;;;7.23;62.22
37972;BME280;23794;48.234;8.344;2023-05-25T01:04:55;94550.59;;;7.19;62.21
37972;BME280;23794;48.234;8.344;2023-05-25T01:07:26;94541.16;;;7.13;62.85
37972;BME280;23794;48.234;8.344;2023-05-25T01:10:00;94537.34;;;7.17;62.33
37972;BME280;23794;48.234;8.344;2023-05-25T01:12:35;94534.66;;;7.21;62.61
37972;BME280;23794;48.234;8.344;2023-05-25T01:15:04;94539.31;;;7.20;62.70
37972;BME280;23794;48.234;8.344;2023-05-25T01:17:30;94540.19;;;7.28;62.95
37972;BME280;23794;48.234;8.344;2023-05-25T01:19:57;94540.66;;;7.34;61.63
37972;BME280;23794;48.234;8.344;2023-05-25T01:22:48;94534.03;;;7.35;62.09
37972;BME280;23794;48.234;8.344;2023-05-25T01:25:33;94524.38;;;7.41;62.43
37972;BME280;23794;48.234;8.344;2023-05-25T01:28:09;94532.69;;;7.52;61.36
37972;BME280;23794;48.234;8.344;2023-05-25T01:30:39;94528.03;;;7.52;61.44
37972;BME280;23794;48.234;8.344;2023-05-25T01:33:09;94530.31;;;7.50;61.48
37972;BME280;23794;48.234;8.344;2023-05-25T01:35:37;94531.13;;;7.51;62.35
37972;BME280;23794;48.234;8.344;2023-05-25T01:38:04;94534.59;;;7.48;62.80
37972;BME280;23794;48.234;8.344;2023-05-25T01:40:31;94537.72;;;7.50;61.84
37972;BME280;23794;48.234;8.344;2023-05-25T01:43:02;94533.91;;;7.54;61.95
37972;BME280;23794;48.234;8.344;2023-05-25T01:45:31;94545.53;;;7.51;61.95
37972;BME280;23794;48.234;8.344;2023-05-25T01:50:33;94538.25;;;7.63;60.75
37972;BME280;23794;48.234;8.344;2023-05-25T01:53:03;94537.25;;;7.44;62.46
37972;BME280;23794;48.234;8.344;2023-05-25T01:55:36;94533.09;;;7.54;61.62
37972;BME280;23794;48.234;8.344;2023-05-25T01:58:06;94528.81;;;7.53;62.64
37972;BME280;23794;48.234;8.344;2023-05-25T02:00:34;94526.13;;;7.56;62.57
37972;BME280;23794;48.234;8.344;2023-05-25T02:03:02;94522.16;;;7.50;62.05
37972;BME280;23794;48.234;8.344;2023-05-25T02:05:30;94518.97;;;7.45;62.07
37972;BME280;23794;48.234;8.344;2023-05-25T02:07:57;94527.25;;;7.52;61.98
37972;BME280;23794;48.234;8.344;2023-05-25T02:10:23;94521.78;;;7.52;63.03
37972;BME280;23794;48.234;8.344;2023-05-25T02:12:50;94524.59;;;7.59;63.16
37972;BME280;23794;48.234;8.344;2023-05-25T02:15:17;94522.59;;;7.56;61.75
37972;BME280;23794;48.234;8.344;2023-05-25T02:17:44;94520.66;;;7.53;62.45
37972;BME280;23794;48.234;8.344;2023-05-25T02:20:12;94524.22;;;7.61;61.90
37972;BME280;23794;48.234;8.344;2023-05-25T02:22:38;94512.56;;;7.64;61.93
37972;BME280;23794;48.234;8.344;2023-05-25T02:25:06;94514.88;;;7.62;61.65
37972;BME280;23794;48.234;8.344;2023-05-25T02:27:35;94513.31;;;7.61;62.67
37972;BME280;23794;48.234;8.344;2023-05-25T02:30:02;94516.13;;;7.71;61.30
37972;BME280;23794;48.234;8.344;2023-05-25T02:32:29;94514.47;;;7.60;61.45
37972;BME280;23794;48.234;8.344;2023-05-25T02:34:57;94515.34;;;7.67;62.07
37972;BME280;23794;48.234;8.344;2023-05-25T02:37:23;94502.13;;;7.73;61.05
37972;BME280;23794;48.234;8.344;2023-05-25T02:39:50;94502.16;;;7.77;61.06
37972;BME280;23794;48.234;8.344;2023-05-25T02:42:18;94506.19;;;7.90;60.36
37972;BME280;23794;48.234;8.344;2023-05-25T02:44:46;94502.34;;;7.95;60.73
37972;BME280;23794;48.234;8.344;2023-05-25T02:47:14;94508.19;;;7.97;60.59
37972;BME280;23794;48.234;8.344;2023-05-25T02:49:41;94510.44;;;7.87;60.99
37972;BME280;23794;48.234;8.344;2023-05-25T02:52:08;94512.78;;;7.85;60.46
37972;BME280;23794;48.234;8.344;2023-05-25T02:54:35;94510.78;;;7.82;59.85
37972;BME280;23794;48.234;8.344;2023-05-25T02:57:04;94513.94;;;7.84;60.48
37972;BME280;23794;48.234;8.344;2023-05-25T02:59:31;94514.31;;;7.83;59.85
37972;BME280;23794;48.234;8.344;2023-05-25T03:01:58;94513.09;;;7.80;59.41
37972;BME280;23794;48.234;8.344;2023-05-25T03:04:25;94519.84;;;7.90;59.91
37972;BME280;23794;48.234;8.344;2023-05-25T03:06:53;94519.31;;;7.77;60.78
37972;BME280;23794;48.234;8.344;2023-05-25T03:09:20;94519.38;;;7.84;60.54
37972;BME280;23794;48.234;8.344;2023-05-25T03:11:49;94515.16;;;7.91;60.32
37972;BME280;23794;48.234;8.344;2023-05-25T03:14:18;94525.00;;;8.02;60.42
37972;BME280;23794;48.234;8.344;2023-05-25T03:16:53;94528.81;;;7.94;60.08
37972;BME280;23794;48.234;8.344;2023-05-25T03:19:21;94521.41;;;7.91;60.62
37972;BME280;23794;48.234;8.344;2023-05-25T03:21:48;94524.94;;;7.95;60.57
37972;BME280;23794;48.234;8.344;2023-05-25T03:24:17;94521.25;;;7.77;60.78
37972;BME280;23794;48.234;8.344;2023-05-25T03:26:43;94527.47;;;7.74;61.70
37972;BME280;23794;48.234;8.344;2023-05-25T03:29:10;94527.31;;;7.59;61.21
37972;BME280;23794;48.234;8.344;2023-05-25T03:31:37;94528.28;;;7.44;61.55
37972;BME280;23794;48.234;8.344;2023-05-25T03:34:04;94521.66;;;7.41;61.97
37972;BME280;23794;48.234;8.344;2023-05-25T03:36:34;94526.19;;;7.30;62.14
37972;BME280;23794;48.234;8.344;2023-05-25T03:39:05;94529.25;;;7.24;61.86
37972;BME280;23794;48.234;8.344;2023-05-25T03:41:33;94528.78;;;7.19;62.26
37972;BME280;23794;48.234;8.344;2023-05-25T03:43:59;94530.97;;;7.06;62.04
37972;BME280;23794;48.234;8.344;2023-05-25T03:46:26;94529.38;;;7.05;62.15
37972;BME280;23794;48.234;8.344;2023-05-25T03:48:56;94533.94;;;6.93;62.44
37972;BME280;23794;48.234;8.344;2023-05-25T03:51:22;94537.47;;;6.98;62.52
37972;BME280;23794;48.234;8.344;2023-05-25T03:53:49;94535.47;;;6.91;62.49
37972;BME280;23794;48.234;8.344;2023-05-25T03:56:15;94529.69;;;6.96;63.47
37972;BME280;23794;48.234;8.344;2023-05-25T03:58:42;94536.44;;;7.09;63.25
37972;BME280;23794;48.234;8.344;2023-05-25T04:01:09;94542.41;;;7.19;62.51
37972;BME280;23794;48.234;8.344;2023-05-25T04:03:36;94531.81;;;7.10;62.10
37972;BME280;23794;48.234;8.344;2023-05-25T04:06:03;94534.06;;;7.04;63.11
37972;BME280;23794;48.234;8.344;2023-05-25T04:08:30;94533.94;;;6.93;63.41
37972;BME280;23794;48.234;8.344;2023-05-25T04:10:57;94548.31;;;6.94;64.25
37972;BME280;23794;48.234;8.344;2023-05-25T04:13:26;94553.84;;;7.01;64.01
37972;BME280;23794;48.234;8.344;2023-05-25T04:15:54;94541.00;;;6.98;63.92
37972;BME280;23794;48.234;8.344;2023-05-25T04:18:25;94541.75;;;6.99;64.00
37972;BME280;23794;48.234;8.344;2023-05-25T04:20:51;94545.63;;;6.98;63.86
37972;BME280;23794;48.234;8.344;2023-05-25T04:23:20;94545.59;;;6.94;63.66
37972;BME280;23794;48.234;8.344;2023-05-25T04:25:48;94549.22;;;7.02;64.19
37972;BME280;23794;48.234;8.344;2023-05-25T04:28:16;94549.59;;;7.00;64.30
37972;BME280;23794;48.234;8.344;2023-05-25T04:30:49;94555.38;;;6.99;64.20
37972;BME280;23794;48.234;8.344;2023-05-25T04:33:26;94554.63;;;6.98;65.34
37972;BME280;23794;48.234;8.344;2023-05-25T04:36:01;94560.09;;;7.02;64.34
37972;BME280;23794;48.234;8.344;2023-05-25T04:38:29;94552.31;;;7.00;64.23
37972;BME280;23794;48.234;8.344;2023-05-25T04:40:59;94561.59;;;6.96;65.35
37972;BME280;23794;48.234;8.344;2023-05-25T04:43:28;94553.03;;;6.97;64.72
37972;BME280;23794;48.234;8.344;2023-05-25T04:45:57;94557.47;;;7.09;64.48
37972;BME280;23794;48.234;8.344;2023-05-25T04:48:26;94547.78;;;7.12;64.56
37972;BME280;23794;48.234;8.344;2023-05-25T04:50:54;94551.69;;;7.14;64.42
37972;BME280;23794;48.234;8.344;2023-05-25T04:53:29;94559.56;;;7.19;64.39
37972;BME280;23794;48.234;8.344;2023-05-25T04:55:56;94562.59;;;7.14;64.08
37972;BME280;23794;48.234;8.344;2023-05-25T04:58:24;94564.63;;;7.21;63.80
37972;BME280;23794;48.234;8.344;2023-05-25T05:00:51;94570.22;;;7.32;65.07
37972;BME280;23794;48.234;8.344;2023-05-25T05:03:18;94556.59;;;7.32;64.20
37972;BME280;23794;48.234;8.344;2023-05-25T05:05:45;94563.09;;;7.23;64.46
37972;BME280;23794;48.234;8.344;2023-05-25T05:08:17;94561.22;;;7.31;64.61
37972;BME280;23794;48.234;8.344;2023-05-25T05:10:44;94556.59;;;7.32;64.34
37972;BME280;23794;48.234;8.344;2023-05-25T05:13:11;94554.72;;;7.39;64.34
37972;BME280;23794;48.234;8.344;2023-05-25T05:15:39;94559.53;;;7.50;63.46
37972;BME280;23794;48.234;8.344;2023-05-25T05:18:06;94566.66;;;7.58;64.67
37972;BME280;23794;48.234;8.344;2023-05-25T05:20:35;94570.19;;;7.62;64.55
37972;BME280;23794;48.234;8.344;2023-05-25T05:23:01;94568.59;;;7.61;65.02
37972;BME280;23794;48.234;8.344;2023-05-25T05:25:28;94572.59;;;7.67;65.29
37972;BME280;23794;48.234;8.344;2023-05-25T05:27:56;94574.94;;;7.69;64.94
37972;BME280;23794;48.234;8.344;2023-05-25T05:30:25;94575.00;;;7.76;64.77
37972;BME280;23794;48.234;8.344;2023-05-25T05:32:52;94583.72;;;7.89;64.38
37972;BME280;23794;48.234;8.344;2023-05-25T05:35:21;94583.34;;;7.91;64.92
37972;BME280;23794;48.234;8.344;2023-05-25T05:37:48;94592.41;;;7.98;64.04
37972;BME280;23794;48.234;8.344;2023-05-25T05:40:15;94591.66;;;8.05;63.35
37972;BME280;23794;48.234;8.344;2023-05-25T05:42:42;94594.03;;;8.10;64.39
37972;BME280;23794;48.234;8.344;2023-05-25T05:45:09;94585.50;;;8.12;63.58
37972;BME280;23794;48.234;8.344;2023-05-25T05:47:36;94592.53;;;8.13;63.45
37972;BME280;23794;48.234;8.344;2023-05-25T05:50:03;94589.47;;;8.22;63.68
37972;BME280;23794;48.234;8.344;2023-05-25T05:52:32;94587.25;;;8.34;62.91
37972;BME280;23794;48.234;8.344;2023-05-25T05:54:58;94585.09;;;8.55;62.64
37972;BME280;23794;48.234;8.344;2023-05-25T05:57:25;94580.00;;;8.57;61.45
37972;BME280;23794;48.234;8.344;2023-05-25T05:59:53;94585.13;;;8.62;62.29
37972;BME280;23794;48.234;8.344;2023-05-25T06:02:21;94576.63;;;8.74;61.80
37972;BME280;23794;48.234;8.344;2023-05-25T06:04:48;94581.03;;;8.93;61.16
37972;BME280;23794;48.234;8.344;2023-05-25T06:07:17;94575.94;;;8.85;60.79
37972;BME280;23794;48.234;8.344;2023-05-25T06:09:44;94582.13;;;8.81;61.23
37972;BME280;23794;48.234;8.344;2023-05-25T06:12:10;94570.13;;;8.93;61.29
37972;BME280;23794;48.234;8.344;2023-05-25T06:14:37;94575.25;;;9.06;61.28
37972;BME280;23794;48.234;8.344;2023-05-25T06:17:04;94574.56;;;9.20;61.10
37972;BME280;23794;48.234;8.344;2023-05-25T06:19:31;94572.63;;;9.31;60.93
37972;BME280;23794;48.234;8.344;2023-05-25T06:21:58;94579.78;;;9.50;59.88
37972;BME280;23794;48.234;8.344;2023-05-25T06:24:24;94580.97;;;9.45;60.31
37972;BME280;23794;48.234;8.344;2023-05-25T06:26:51;94579.78;;;9.54;60.23
37972;BME280;23794;48.234;8.344;2023-05-25T06:29:19;94592.31;;;9.55;60.06
37972;BME280;23794;48.234;8.344;2023-05-25T06:31:45;94597.44;;;9.64;60.66
37972;BME280;23794;48.234;8.344;2023-05-25T06:34:12;94591.22;;;9.85;60.42
37972;BME280;23794;48.234;8.344;2023-05-25T06:36:38;94587.31;;;9.86;59.88
37972;BME280;23794;48.234;8.344;2023-05-25T06:39:08;94591.63;;;9.83;59.46
37972;BME280;23794;48.234;8.344;2023-05-25T06:41:37;94585.44;;;10.08;60.33
37972;BME280;23794;48.234;8.344;2023-05-25T06:44:03;94587.78;;;10.17;58.93
37972;BME280;23794;48.234;8.344;2023-05-25T06:46:31;94590.94;;;10.26;59.80
37972;BME280;23794;48.234;8.344;2023-05-25T06:48:59;94581.97;;;10.44;59.02
37972;BME280;23794;48.234;8.344;2023-05-25T06:51:26;94589.78;;;10.49;58.57
37972;BME280;23794;48.234;8.344;2023-05-25T06:53:56;94586.63;;;10.32;59.05
37972;BME280;23794;48.234;8.344;2023-05-25T06:56:23;94600.31;;;10.43;58.99
37972;BME280;23794;48.234;8.344;2023-05-25T06:58:50;94603.47;;;10.70;59.00
37972;BME280;23794;48.234;8.344;2023-05-25T07:01:16;94608.53;;;10.90;58.81
37972;BME280;23794;48.234;8.344;2023-05-25T07:03:43;94613.63;;;11.17;58.36
37972;BME280;23794;48.234;8.344;2023-05-25T07:06:10;94625.75;;;11.27;58.17
37972;BME280;23794;48.234;8.344;2023-05-25T07:08:37;94616.38;;;11.06;58.37
37972;BME280;23794;48.234;8.344;2023-05-25T07:11:04;94613.63;;;11.17;57.97
37972;BME280;23794;48.234;8.344;2023-05-25T07:13:31;94599.88;;;11.28;57.86
37972;BME280;23794;48.234;8.344;2023-05-25T07:15:57;94611.66;;;10.96;58.10
37972;BME280;23794;48.234;8.344;2023-05-25T07:18:24;94615.22;;;11.07;58.93
37972;BME280;23794;48.234;8.344;2023-05-25T07:20:51;94617.13;;;11.21;58.64
37972;BME280;23794;48.234;8.344;2023-05-25T07:23:18;94632.34;;;11.47;58.12
37972;BME280;23794;48.234;8.344;2023-05-25T07:25:45;94621.44;;;11.22;58.40
37972;BME280;23794;48.234;8.344;2023-05-25T07:28:12;94640.59;;;11.40;58.44
37972;BME280;23794;48.234;8.344;2023-05-25T07:30:39;94635.97;;;11.08;58.76
37972;BME280;23794;48.234;8.344;2023-05-25T07:33:06;94644.19;;;11.01;59.92
37972;BME280;23794;48.234;8.344;2023-05-25T07:35:32;94637.13;;;10.96;60.17
37972;BME280;23794;48.234;8.344;2023-05-25T07:38:02;94647.31;;;11.10;60.06
37972;BME280;23794;48.234;8.344;2023-05-25T07:40:29;94645.72;;;11.20;59.44
37972;BME280;23794;48.234;8.344;2023-05-25T07:42:57;94647.69;;;11.23;59.58
37972;BME280;23794;48.234;8.344;2023-05-25T07:45:23;94653.16;;;11.27;59.90
37972;BME280;23794;48.234;8.344;2023-05-25T07:47:50;94646.09;;;11.36;59.46
37972;BME280;23794;48.234;8.344;2023-05-25T07:50:17;94654.69;;;11.46;59.82
37972;BME280;23794;48.234;8.344;2023-05-25T07:52:44;94648.78;;;11.51;59.35
37972;BME280;23794;48.234;8.344;2023-05-25T07:55:11;94652.72;;;11.57;59.42
37972;BME280;23794;48.234;8.344;2023-05-25T07:57:38;94658.22;;;11.46;59.47
37972;BME280;23794;48.234;8.344;2023-05-25T08:00:05;94660.97;;;11.35;60.07
37972;BME280;23794;48.234;8.344;2023-05-25T08:02:38;94654.69;;;11.46;60.00
37972;BME280;23794;48.234;8.344;2023-05-25T08:05:05;94658.16;;;11.68;59.71
37972;BME280;23794;48.234;8.344;2023-05-25T08:07:32;94653.75;;;11.92;59.23
37972;BME280;23794;48.234;8.344;2023-05-25T08:09:59;94658.09;;;11.86;58.63
37972;BME280;23794;48.234;8.344;2023-05-25T08:12:26;94661.25;;;11.77;59.27
37972;BME280;23794;48.234;8.344;2023-05-25T08:15:12;94662.56;;;11.26;60.80
37972;BME280;23794;48.234;8.344;2023-05-25T08:17:39;94664.09;;;11.41;61.04
37972;BME280;23794;48.234;8.344;2023-05-25T08:20:07;94667.63;;;11.52;60.56
37972;BME280;23794;48.234;8.344;2023-05-25T08:22:35;94678.63;;;11.38;60.45
37972;BME280;23794;48.234;8.344;2023-05-25T08:25:02;94671.56;;;11.33;61.14
37972;BME280;23794;48.234;8.344;2023-05-25T08:27:29;94673.94;;;11.28;61.30
37972;BME280;23794;48.234;8.344;2023-05-25T08:30:01;94672.34;;;11.34;61.47
37972;BME280;23794;48.234;8.344;2023-05-25T08:32:27;94682.91;;;11.57;61.00
37972;BME280;23794;48.234;8.344;2023-05-25T08:34:54;94680.22;;;11.07;61.44
37972;BME280;23794;48.234;8.344;2023-05-25T08:37:21;94685.31;;;11.12;61.85
37972;BME280;23794;48.234;8.344;2023-05-25T08:39:49;94679.03;;;11.11;62.84
37972;BME280;23794;48.234;8.344;2023-05-25T08:42:15;94686.03;;;11.41;61.45
37972;BME280;23794;48.234;8.344;2023-05-25T08:44:42;94689.94;;;11.47;60.96
37972;BME280;23794;48.234;8.344;2023-05-25T08:47:10;94689.91;;;11.69;60.74
37972;BME280;23794;48.234;8.344;2023-05-25T08:49:38;94689.09;;;11.79;60.01
37972;BME280;23794;48.234;8.344;2023-05-25T08:52:09;94688.00;;;11.48;61.20
37972;BME280;23794;48.234;8.344;2023-05-25T08:54:42;94683.97;;;11.85;61.26
37972;BME280;23794;48.234;8.344;2023-05-25T08:57:16;94687.38;;;12.14;59.72
37972;BME280;23794;48.234;8.344;2023-05-25T09:00:02;94678.84;;;11.94;60.89
37972;BME280;23794;48.234;8.344;2023-05-25T09:02:57;94685.13;;;11.95;60.56
37972;BME280;23794;48.234;8.344;2023-05-25T09:05:25;94696.41;;;12.19;60.17
37972;BME280;23794;48.234;8.344;2023-05-25T09:07:52;94701.03;;;12.40;59.44
37972;BME280;23794;48.234;8.344;2023-05-25T09:10:23;94707.00;;;12.13;60.54
37972;BME280;23794;48.234;8.344;2023-05-25T09:12:51;94707.06;;;12.02;60.85
37972;BME280;23794;48.234;8.344;2023-05-25T09:15:20;94708.91;;;12.30;60.56
37972;BME280;23794;48.234;8.344;2023-05-25T09:17:47;94710.78;;;12.55;59.95
37972;BME280;23794;48.234;8.344;2023-05-25T09:20:13;94711.59;;;12.49;59.73
37972;BME280;23794;48.234;8.344;2023-05-25T09:22:42;94713.22;;;12.28;60.24
37972;BME280;23794;48.234;8.344;2023-05-25T09:25:09;94719.19;;;12.08;61.01
37972;BME280;23794;48.234;8.344;2023-05-25T09:27:37;94723.53;;;11.98;61.47
37972;BME280;23794;48.234;8.344;2023-05-25T09:30:05;94720.72;;;12.20;61.43
37972;BME280;23794;48.234;8.344;2023-05-25T09:32:32;94718.22;;;12.51;61.20
37972;BME280;23794;48.234;8.344;2023-05-25T09:35:09;94722.31;;;12.92;60.31
37972;BME280;23794;48.234;8.344;2023-05-25T09:37:36;94724.78;;;12.72;60.00
37972;BME280;23794;48.234;8.344;2023-05-25T09:40:07;94726.25;;;12.87;59.77
37972;BME280;23794;48.234;8.344;2023-05-25T09:42:37;94725.06;;;13.41;59.01
37972;BME280;23794;48.234;8.344;2023-05-25T09:45:04;94719.34;;;13.66;57.91
37972;BME280;23794;48.234;8.344;2023-05-25T09:47:31;94716.91;;;13.76;57.27
37972;BME280;23794;48.234;8.344;2023-05-25T09:49:58;94717.81;;;14.00;56.57
37972;BME280;23794;48.234;8.344;2023-05-25T09:52:26;94725.25;;;14.03;56.09
37972;BME280;23794;48.234;8.344;2023-05-25T09:54:52;94713.25;;;14.20;57.14
37972;BME280;23794;48.234;8.344;2023-05-25T09:57:20;94718.47;;;14.46;56.36
37972;BME280;23794;48.234;8.344;2023-05-25T09:59:46;94714.31;;;14.61;55.15
37972;BME280;23794;48.234;8.344;2023-05-25T10:02:14;94726.84;;;14.66;55.40
37972;BME280;23794;48.234;8.344;2023-05-25T10:04:41;94722.31;;;14.83;55.48
37972;BME280;23794;48.234;8.344;2023-05-25T10:07:08;94721.00;;;14.91;55.88
37972;BME280;23794;48.234;8.344;2023-05-25T10:09:38;94720.44;;;14.73;54.55
37972;BME280;23794;48.234;8.344;2023-05-25T10:12:09;94727.41;;;14.53;55.89
37972;BME280;23794;48.234;8.344;2023-05-25T10:14:37;94737.09;;;14.34;56.96
37972;BME280;23794;48.234;8.344;2023-05-25T10:17:05;94748.28;;;14.20;56.97
37972;BME280;23794;48.234;8.344;2023-05-25T10:19:46;94733.53;;;14.03;58.04
37972;BME280;23794;48.234;8.344;2023-05-25T10:22:19;94742.47;;;14.11;57.99
37972;BME280;23794;48.234;8.344;2023-05-25T10:24:54;94737.19;;;14.58;56.87
37972;BME280;23794;48.234;8.344;2023-05-25T10:27:23;94740.78;;;14.86;56.26
37972;BME280;23794;48.234;8.344;2023-05-25T10:29:55;94745.31;;;14.69;56.30
37972;BME280;23794;48.234;8.344;2023-05-25T10:32:21;94753.00;;;14.54;56.95
37972;BME280;23794;48.234;8.344;2023-05-25T10:34:50;94745.50;;;14.55;57.29
37972;BME280;23794;48.234;8.344;2023-05-25T10:37:17;94747.63;;;14.74;56.65
37972;BME280;23794;48.234;8.344;2023-05-25T10:39:44;94754.06;;;14.95;55.88
37972;BME280;23794;48.234;8.344;2023-05-25T10:42:11;94755.19;;;14.66;56.57
37972;BME280;23794;48.234;8.344;2023-05-25T10:44:41;94751.06;;;14.51;56.82
37972;BME280;23794;48.234;8.344;2023-05-25T10:47:09;94751.38;;;14.57;57.26
37972;BME280;23794;48.234;8.344;2023-05-25T10:49:53;94755.56;;;14.37;58.16
37972;BME280;23794;48.234;8.344;2023-05-25T10:52:21;94749.16;;;14.75;57.20
37972;BME280;23794;48.234;8.344;2023-05-25T10:54:54;94748.38;;;15.57;56.32
37972;BME280;23794;48.234;8.344;2023-05-25T10:57:22;94736.59;;;15.53;55.19
37972;BME280;23794;48.234;8.344;2023-05-25T10:59:51;94739.00;;;16.18;53.94
37972;BME280;23794;48.234;8.344;2023-05-25T11:02:20;94743.75;;;16.18;52.37
37972;BME280;23794;48.234;8.344;2023-05-25T11:04:53;94747.34;;;15.94;53.49
37972;BME280;23794;48.234;8.344;2023-05-25T11:07:52;94746.50;;;15.50;54.44
37972;BME280;23794;48.234;8.344;2023-05-25T11:13:36;94749.44;;;15.39;54.28
37972;BME280;23794;48.234;8.344;2023-05-25T11:19:00;94742.94;;;15.73;54.13
37972;BME280;23794;48.234;8.344;2023-05-25T11:23:56;94745.44;;;16.52;53.61
37972;BME280;23794;48.234;8.344;2023-05-25T11:26:29;94746.16;;;16.56;51.98
37972;BME280;23794;48.234;8.344;2023-05-25T11:28:57;94742.34;;;16.86;53.12
37972;BME280;23794;48.234;8.344;2023-05-25T11:31:32;94734.50;;;17.01;51.44
37972;BME280;23794;48.234;8.344;2023-05-25T11:34:07;94743.25;;;16.80;51.39
37972;BME280;23794;48.234;8.344;2023-05-25T11:36:35;94743.31;;;16.60;52.81
37972;BME280;23794;48.234;8.344;2023-05-25T11:39:04;94737.22;;;17.21;52.23
37972;BME280;23794;48.234;8.344;2023-05-25T11:42:00;94738.88;;;17.52;50.35
37972;BME280;23794;48.234;8.344;2023-05-25T11:44:32;94731.78;;;17.67;51.63
37972;BME280;23794;48.234;8.344;2023-05-25T11:47:01;94742.13;;;17.80;49.32
37972;BME280;23794;48.234;8.344;2023-05-25T11:49:30;94743.13;;;17.57;50.18
37972;BME280;23794;48.234;8.344;2023-05-25T11:51:57;94730.47;;;18.18;50.33
37972;BME280;23794;48.234;8.344;2023-05-25T11:54:25;94734.00;;;18.48;48.00
37972;BME280;23794;48.234;8.344;2023-05-25T11:56:54;94742.00;;;18.59;46.76
37972;BME280;23794;48.234;8.344;2023-05-25T11:59:25;94743.59;;;17.84;49.44
37972;BME280;23794;48.234;8.344;2023-05-25T12:02:00;94742.91;;;17.97;49.75
37972;BME280;23794;48.234;8.344;2023-05-25T12:04:28;94743.50;;;17.88;49.12
37972;BME280;23794;48.234;8.344;2023-05-25T12:07:03;94742.66;;;17.25;50.22
37972;BME280;23794;48.234;8.344;2023-05-25T12:09:30;94743.81;;;17.44;51.65
37972;BME280;23794;48.234;8.344;2023-05-25T12:11:58;94743.06;;;17.90;50.06
37972;BME280;23794;48.234;8.344;2023-05-25T12:14:26;94731.97;;;18.36;48.56
37972;BME280;23794;48.234;8.344;2023-05-25T12:16:53;94736.31;;;18.50;47.86
37972;BME280;23794;48.234;8.344;2023-05-25T12:19:21;94730.16;;;18.29;48.94
37972;BME280;23794;48.234;8.344;2023-05-25T12:21:48;94728.38;;;18.22;49.19
37972;BME280;23794;48.234;8.344;2023-05-25T12:24:17;94731.41;;;17.98;49.16
37972;BME280;23794;48.234;8.344;2023-05-25T12:26:49;94732.97;;;17.83;49.82
37972;BME280;23794;48.234;8.344;2023-05-25T12:29:16;94740.00;;;17.71;49.74
37972;BME280;23794;48.234;8.344;2023-05-25T12:31:42;94720.97;;;18.03;49.70
37972;BME280;23794;48.234;8.344;2023-05-25T12:34:16;94729.72;;;18.18;50.01
37972;BME280;23794;48.234;8.344;2023-05-25T12:39:32;94733.81;;;18.68;47.98
37972;BME280;23794;48.234;8.344;2023-05-25T12:42:10;94729.22;;;18.36;48.80
37972;BME280;23794;48.234;8.344;2023-05-25T12:44:37;94753.09;;;18.16;49.33
37972;BME280;23794;48.234;8.344;2023-05-25T12:47:14;94752.69;;;17.85;49.27
37972;BME280;23794;48.234;8.344;2023-05-25T12:49:43;94754.47;;;17.46;50.15
37972;BME280;23794;48.234;8.344;2023-05-25T12:52:11;94748.91;;;17.13;51.19
37972;BME280;23794;48.234;8.344;2023-05-25T12:54:56;94759.56;;;17.31;51.16
37972;BME280;23794;48.234;8.344;2023-05-25T12:57:33;94736.41;;;18.33;48.63
37972;BME280;23794;48.234;8.344;2023-05-25T13:00:00;94737.22;;;19.27;47.10
37972;BME280;23794;48.234;8.344;2023-05-25T13:02:27;94733.72;;;19.75;46.28
37972;BME280;23794;48.234;8.344;2023-05-25T13:04:54;94740.38;;;19.78;46.56
37972;BME280;23794;48.234;8.344;2023-05-25T13:07:21;94740.00;;;19.88;44.84
37972;BME280;23794;48.234;8.344;2023-05-25T13:09:48;94732.97;;;19.97;44.37
37972;BME280;23794;48.234;8.344;2023-05-25T13:12:15;94745.16;;;19.64;46.38
37972;BME280;23794;48.234;8.344;2023-05-25T13:14:43;94743.09;;;19.17;46.69
37972;BME280;23794;48.234;8.344;2023-05-25T13:17:09;94750.31;;;19.27;46.99
37972;BME280;23794;48.234;8.344;2023-05-25T13:19:36;94752.94;;;18.79;47.60
37972;BME280;23794;48.234;8.344;2023-05-25T13:22:04;94755.91;;;18.72;47.69
37972;BME280;23794;48.234;8.344;2023-05-25T13:24:30;94753.31;;;18.52;47.72
37972;BME280;23794;48.234;8.344;2023-05-25T13:26:58;94761.78;;;18.02;48.49